sensor_id;sensor_type;location;lat;lon;timestamp;temperature;humidity
11666;DHT22;5889;51.350;6.708;2023-09-19T00:00:25;16.60;99.90
11666;DHT22;5889;51.350;6.708;2023-09-19T00:02:53;16.50;99.90
11666;DHT22;5889;51.350;6.708;2023-09-19T00:05:21;16.50;99.90
11666;DHT22;5889;51.350;6.708;2023-09-19T00:07:50;16.60;99.90
11666;DHT22;5889;51.350;6.708;2023-09-19T00:10:19;16.50;99.90
11666;DHT22;5889;51.350;6.708;2023-09-19T00:12:47;16.50;99.90
11666;DHT22;5889;51.350;6.708;2023-09-19T00:15:14;16.40;99.90
11666;DHT22;5889;51.350;6.708;2023-09-19T00:17:43;16.40;99.90
11666;DHT22;5889;51.350;6.708;2023-09-19T00:20:10;16.40;99.90
11666;DHT22;5889;51.350;6.708;2023-09-19T00:22:40;16.30;99.90
11666;DHT22;5889;51.350;6.708;2023-09-19T00:25:08;16.30;99.90
11666;DHT22;5889;51.350;6.708;2023-09-19T00:27:35;16.30;99.90
11666;DHT22;5889;51.350;6.708;2023-09-19T00:30:05;16.30;99.90
11666;DHT22;5889;51.350;6.708;2023-09-19T00:32:34;16.20;99.90
11666;DHT22;5889;51.350;6.708;2023-09-19T00:35:03;16.30;99.90
11666;DHT22;5889;51.350;6.708;2023-09-19T00:37:31;16.20;99.90
11666;DHT22;5889;51.350;6.708;2023-09-19T00:39:59;16.20;99.90
11666;DHT22;5889;51.350;6.708;2023-09-19T00:42:26;16.20;99.90
11666;DHT22;5889;51.350;6.708;2023-09-19T00:44:53;16.20;99.90
11666;DHT22;5889;51.350;6.708;2023-09-19T00:47:20;16.20;99.90
11666;DHT22;5889;51.350;6.708;2023-09-19T00:49:47;16.10;99.90
11666;DHT22;5889;51.350;6.708;2023-09-19T00:52:18;16.10;99.90
11666;DHT22;5889;51.350;6.708;2023-09-19T00:54:46;16.10;99.90
11666;DHT22;5889;51.350;6.708;2023-09-19T00:57:15;16.10;99.90
11666;DHT22;5889;51.350;6.708;2023-09-19T00:59:43;16.10;99.90
11666;DHT22;5889;51.350;6.708;2023-09-19T01:02:10;16.00;99.90
11666;DHT22;5889;51.350;6.708;2023-09-19T01:04:38;16.00;99.90
11666;DHT22;5889;51.350;6.708;2023-09-19T01:07:05;16.00;99.90
11666;DHT22;5889;51.350;6.708;2023-09-19T01:09:33;16.00;99.90
11666;DHT22;5889;51.350;6.708;2023-09-19T01:12:02;15.90;99.90
11666;DHT22;5889;51.350;6.708;2023-09-19T01:14:40;15.90;99.90
11666;DHT22;5889;51.350;6.708;2023-09-19T01:17:16;15.90;99.90
11666;DHT22;5889;51.350;6.708;2023-09-19T01:20:19;15.90;99.90
11666;DHT22;5889;51.350;6.708;2023-09-19T01:23:00;15.90;99.90
11666;DHT22;5889;51.350;6.708;2023-09-19T01:28:45;15.90;99.90
11666;DHT22;5889;51.350;6.708;2023-09-19T01:31:21;15.90;99.90
11666;DHT22;5889;51.350;6.708;2023-09-19T01:33:57;15.80;99.90
11666;DHT22;5889;51.350;6.708;2023-09-19T01:36:25;15.80;99.90
11666;DHT22;5889;51.350;6.708;2023-09-19T01:38:53;15.80;99.90
11666;DHT22;5889;51.350;6.708;2023-09-19T01:41:25;15.80;99.90
11666;DHT22;5889;51.350;6.708;2023-09-19T01:43:52;15.70;99.90
11666;DHT22;5889;51.350;6.708;2023-09-19T01:46:24;15.70;99.90
11666;DHT22;5889;51.350;6.708;2023-09-19T01:48:58;15.70;99.90
11666;DHT22;5889;51.350;6.708;2023-09-19T01:51:39;15.70;99.90
11666;DHT22;5889;51.350;6.708;2023-09-19T01:54:11;15.70;99.90
11666;DHT22;5889;51.350;6.708;2023-09-19T01:56:45;15.70;99.90
11666;DHT22;5889;51.350;6.708;2023-09-19T01:59:24;15.70;99.90
11666;DHT22;5889;51.350;6.708;2023-09-19T02:01:54;15.70;99.90
11666;DHT22;5889;51.350;6.708;2023-09-19T02:04:23;15.70;99.90
11666;DHT22;5889;51.350;6.708;2023-09-19T02:06:50;15.70;99.90
11666;DHT22;5889;51.350;6.708;2023-09-19T02:09:17;15.60;99.90
11666;DHT22;5889;51.350;6.708;2023-09-19T02:11:44;15.60;99.90
11666;DHT22;5889;51.350;6.708;2023-09-19T02:14:10;15.60;99.90
11666;DHT22;5889;51.350;6.708;2023-09-19T02:16:37;15.60;99.90
11666;DHT22;5889;51.350;6.708;2023-09-19T02:19:05;15.60;99.90
11666;DHT22;5889;51.350;6.708;2023-09-19T02:21:32;15.60;99.90
11666;DHT22;5889;51.350;6.708;2023-09-19T02:23:59;15.60;99.90
11666;DHT22;5889;51.350;6.708;2023-09-19T02:26:26;15.60;99.90
11666;DHT22;5889;51.350;6.708;2023-09-19T02:28:52;15.60;99.90
11666;DHT22;5889;51.350;6.708;2023-09-19T02:31:19;15.50;99.90
11666;DHT22;5889;51.350;6.708;2023-09-19T02:33:46;15.50;99.90
11666;DHT22;5889;51.350;6.708;2023-09-19T02:36:14;15.50;99.90
11666;DHT22;5889;51.350;6.708;2023-09-19T02:38:42;15.50;99.90
11666;DHT22;5889;51.350;6.708;2023-09-19T02:41:09;15.50;99.90
11666;DHT22;5889;51.350;6.708;2023-09-19T02:43:37;15.50;99.90
11666;DHT22;5889;51.350;6.708;2023-09-19T02:46:04;15.50;99.90
11666;DHT22;5889;51.350;6.708;2023-09-19T02:48:31;15.50;99.90
11666;DHT22;5889;51.350;6.708;2023-09-19T02:51:00;15.50;99.90
11666;DHT22;5889;51.350;6.708;2023-09-19T02:53:28;15.40;99.90
11666;DHT22;5889;51.350;6.708;2023-09-19T02:55:56;15.40;99.90
11666;DHT22;5889;51.350;6.708;2023-09-19T02:58:24;15.40;99.90
11666;DHT22;5889;51.350;6.708;2023-09-19T03:00:53;15.40;99.90
11666;DHT22;5889;51.350;6.708;2023-09-19T03:03:20;15.40;99.90
11666;DHT22;5889;51.350;6.708;2023-09-19T03:05:48;15.40;99.90
11666;DHT22;5889;51.350;6.708;2023-09-19T03:08:17;15.40;99.90
11666;DHT22;5889;51.350;6.708;2023-09-19T03:10:47;15.40;99.90
11666;DHT22;5889;51.350;6.708;2023-09-19T03:13:14;15.40;99.90
11666;DHT22;5889;51.350;6.708;2023-09-19T03:15:41;15.40;99.90
11666;DHT22;5889;51.350;6.708;2023-09-19T03:18:09;15.40;99.90
11666;DHT22;5889;51.350;6.708;2023-09-19T03:20:36;15.30;99.90
11666;DHT22;5889;51.350;6.708;2023-09-19T03:23:04;15.30;99.90
11666;DHT22;5889;51.350;6.708;2023-09-19T03:25:34;15.30;99.90
11666;DHT22;5889;51.350;6.708;2023-09-19T03:28:03;15.30;99.90
11666;DHT22;5889;51.350;6.708;2023-09-19T03:30:31;15.30;99.90
11666;DHT22;5889;51.350;6.708;2023-09-19T03:32:59;15.30;99.90
11666;DHT22;5889;51.350;6.708;2023-09-19T03:35:26;15.20;99.90
11666;DHT22;5889;51.350;6.708;2023-09-19T03:37:52;15.30;99.90
11666;DHT22;5889;51.350;6.708;2023-09-19T03:40:19;15.20;99.90
11666;DHT22;5889;51.350;6.708;2023-09-19T03:42:47;15.20;99.90
11666;DHT22;5889;51.350;6.708;2023-09-19T03:45:15;15.20;99.90
11666;DHT22;5889;51.350;6.708;2023-09-19T03:47:43;15.20;99.90
11666;DHT22;5889;51.350;6.708;2023-09-19T03:50:12;15.20;99.90
11666;DHT22;5889;51.350;6.708;2023-09-19T03:52:41;15.20;99.90
11666;DHT22;5889;51.350;6.708;2023-09-19T03:55:08;15.20;99.90
11666;DHT22;5889;51.350;6.708;2023-09-19T03:57:35;15.20;99.90
11666;DHT22;5889;51.350;6.708;2023-09-19T04:00:02;15.20;99.90
11666;DHT22;5889;51.350;6.708;2023-09-19T04:02:32;15.20;99.90
11666;DHT22;5889;51.350;6.708;2023-09-19T04:04:59;15.20;99.90
11666;DHT22;5889;51.350;6.708;2023-09-19T04:07:25;15.20;99.90
11666;DHT22;5889;51.350;6.708;2023-09-19T04:09:54;15.20;99.90
11666;DHT22;5889;51.350;6.708;2023-09-19T04:12:21;15.20;99.90
11666;DHT22;5889;51.350;6.708;2023-09-19T04:14:48;15.10;99.90
11666;DHT22;5889;51.350;6.708;2023-09-19T04:17:15;15.10;99.90
11666;DHT22;5889;51.350;6.708;2023-09-19T04:19:43;15.10;99.90
11666;DHT22;5889;51.350;6.708;2023-09-19T04:22:11;15.10;99.90
11666;DHT22;5889;51.350;6.708;2023-09-19T04:24:38;15.00;99.90
11666;DHT22;5889;51.350;6.708;2023-09-19T04:27:05;15.00;99.90
11666;DHT22;5889;51.350;6.708;2023-09-19T04:29:32;15.00;99.90
11666;DHT22;5889;51.350;6.708;2023-09-19T04:31:59;15.00;99.90
11666;DHT22;5889;51.350;6.708;2023-09-19T04:34:26;15.00;99.90
11666;DHT22;5889;51.350;6.708;2023-09-19T04:36:54;15.00;99.90
11666;DHT22;5889;51.350;6.708;2023-09-19T04:39:21;15.00;99.90
11666;DHT22;5889;51.350;6.708;2023-09-19T04:41:52;15.00;99.90
11666;DHT22;5889;51.350;6.708;2023-09-19T04:44:19;15.00;99.90
11666;DHT22;5889;51.350;6.708;2023-09-19T04:46:46;15.00;99.90
11666;DHT22;5889;51.350;6.708;2023-09-19T04:49:13;15.00;99.90
11666;DHT22;5889;51.350;6.708;2023-09-19T04:51:40;15.00;99.90
11666;DHT22;5889;51.350;6.708;2023-09-19T04:54:09;15.00;99.90
11666;DHT22;5889;51.350;6.708;2023-09-19T04:56:36;15.00;99.90
11666;DHT22;5889;51.350;6.708;2023-09-19T04:59:07;15.00;99.90
11666;DHT22;5889;51.350;6.708;2023-09-19T05:01:36;15.00;99.90
11666;DHT22;5889;51.350;6.708;2023-09-19T05:04:03;15.00;99.90
11666;DHT22;5889;51.350;6.708;2023-09-19T05:06:30;15.00;99.90
11666;DHT22;5889;51.350;6.708;2023-09-19T05:08:57;15.00;99.90
11666;DHT22;5889;51.350;6.708;2023-09-19T05:11:27;15.00;99.90
11666;DHT22;5889;51.350;6.708;2023-09-19T05:13:55;15.00;99.90
11666;DHT22;5889;51.350;6.708;2023-09-19T05:16:21;15.00;99.90
11666;DHT22;5889;51.350;6.708;2023-09-19T05:18:48;15.00;99.90
11666;DHT22;5889;51.350;6.708;2023-09-19T05:21:16;15.10;99.90
11666;DHT22;5889;51.350;6.708;2023-09-19T05:23:43;15.00;99.90
11666;DHT22;5889;51.350;6.708;2023-09-19T05:26:10;15.10;99.90
11666;DHT22;5889;51.350;6.708;2023-09-19T05:28:39;15.10;99.90
11666;DHT22;5889;51.350;6.708;2023-09-19T05:31:06;15.10;99.90
11666;DHT22;5889;51.350;6.708;2023-09-19T05:33:33;15.20;99.90
11666;DHT22;5889;51.350;6.708;2023-09-19T05:35:59;15.30;99.90
11666;DHT22;5889;51.350;6.708;2023-09-19T05:38:26;15.40;99.90
11666;DHT22;5889;51.350;6.708;2023-09-19T05:40:53;15.40;99.90
11666;DHT22;5889;51.350;6.708;2023-09-19T05:43:20;15.40;99.90
11666;DHT22;5889;51.350;6.708;2023-09-19T05:45:48;15.50;99.90
11666;DHT22;5889;51.350;6.708;2023-09-19T05:48:17;15.50;99.90
11666;DHT22;5889;51.350;6.708;2023-09-19T05:50:46;15.50;99.90
11666;DHT22;5889;51.350;6.708;2023-09-19T05:53:14;15.50;99.90
11666;DHT22;5889;51.350;6.708;2023-09-19T05:55:41;15.50;99.90
11666;DHT22;5889;51.350;6.708;2023-09-19T05:58:08;15.50;99.90
11666;DHT22;5889;51.350;6.708;2023-09-19T06:00:35;15.60;99.90
11666;DHT22;5889;51.350;6.708;2023-09-19T06:03:04;15.60;99.90
11666;DHT22;5889;51.350;6.708;2023-09-19T06:05:31;15.60;99.90
11666;DHT22;5889;51.350;6.708;2023-09-19T06:07:58;15.60;99.90
11666;DHT22;5889;51.350;6.708;2023-09-19T06:10:25;15.70;99.90
11666;DHT22;5889;51.350;6.708;2023-09-19T06:12:53;15.70;99.90
11666;DHT22;5889;51.350;6.708;2023-09-19T06:15:20;15.70;99.90
11666;DHT22;5889;51.350;6.708;2023-09-19T06:17:49;15.70;99.90
11666;DHT22;5889;51.350;6.708;2023-09-19T06:20:17;15.70;99.90
11666;DHT22;5889;51.350;6.708;2023-09-19T06:22:45;15.70;99.90
11666;DHT22;5889;51.350;6.708;2023-09-19T06:25:13;15.70;99.90
11666;DHT22;5889;51.350;6.708;2023-09-19T06:27:42;15.70;99.90
11666;DHT22;5889;51.350;6.708;2023-09-19T06:30:10;15.80;99.90
11666;DHT22;5889;51.350;6.708;2023-09-19T06:32:38;15.80;99.90
11666;DHT22;5889;51.350;6.708;2023-09-19T06:35:05;15.90;99.90
11666;DHT22;5889;51.350;6.708;2023-09-19T06:37:35;15.80;99.90
11666;DHT22;5889;51.350;6.708;2023-09-19T06:40:05;15.90;99.90
11666;DHT22;5889;51.350;6.708;2023-09-19T06:42:32;15.90;99.90
11666;DHT22;5889;51.350;6.708;2023-09-19T06:44:59;15.90;99.90
11666;DHT22;5889;51.350;6.708;2023-09-19T06:47:26;15.90;99.90
11666;DHT22;5889;51.350;6.708;2023-09-19T06:49:52;15.90;99.90
11666;DHT22;5889;51.350;6.708;2023-09-19T06:52:19;15.90;99.90
11666;DHT22;5889;51.350;6.708;2023-09-19T06:54:49;16.00;99.90
11666;DHT22;5889;51.350;6.708;2023-09-19T06:57:18;16.00;99.90
11666;DHT22;5889;51.350;6.708;2023-09-19T06:59:45;16.00;99.90
11666;DHT22;5889;51.350;6.708;2023-09-19T07:02:12;16.00;99.90
11666;DHT22;5889;51.350;6.708;2023-09-19T07:04:39;16.10;99.90
11666;DHT22;5889;51.350;6.708;2023-09-19T07:07:06;16.10;99.90
11666;DHT22;5889;51.350;6.708;2023-09-19T07:09:34;16.20;99.90
11666;DHT22;5889;51.350;6.708;2023-09-19T07:12:02;16.30;99.90
11666;DHT22;5889;51.350;6.708;2023-09-19T07:14:29;16.30;99.90
11666;DHT22;5889;51.350;6.708;2023-09-19T07:16:56;16.30;99.90
11666;DHT22;5889;51.350;6.708;2023-09-19T07:19:25;16.40;99.90
11666;DHT22;5889;51.350;6.708;2023-09-19T07:21:54;16.40;99.90
11666;DHT22;5889;51.350;6.708;2023-09-19T07:24:28;16.50;99.90
11666;DHT22;5889;51.350;6.708;2023-09-19T07:26:55;16.50;99.90
11666;DHT22;5889;51.350;6.708;2023-09-19T07:29:23;16.60;99.90
11666;DHT22;5889;51.350;6.708;2023-09-19T07:31:51;16.60;99.90
11666;DHT22;5889;51.350;6.708;2023-09-19T07:34:18;16.60;99.90
11666;DHT22;5889;51.350;6.708;2023-09-19T07:36:46;16.70;99.90
11666;DHT22;5889;51.350;6.708;2023-09-19T07:39:13;16.80;99.90
11666;DHT22;5889;51.350;6.708;2023-09-19T07:41:40;16.70;99.90
11666;DHT22;5889;51.350;6.708;2023-09-19T07:44:07;16.80;99.90
11666;DHT22;5889;51.350;6.708;2023-09-19T07:46:35;16.90;99.90
11666;DHT22;5889;51.350;6.708;2023-09-19T07:49:02;17.00;99.90
11666;DHT22;5889;51.350;6.708;2023-09-19T07:51:30;17.00;99.90
11666;DHT22;5889;51.350;6.708;2023-09-19T07:53:58;17.00;99.90
11666;DHT22;5889;51.350;6.708;2023-09-19T07:56:25;17.00;99.90
11666;DHT22;5889;51.350;6.708;2023-09-19T07:58:53;17.10;99.90
11666;DHT22;5889;51.350;6.708;2023-09-19T08:01:20;17.10;99.90
11666;DHT22;5889;51.350;6.708;2023-09-19T08:03:50;17.10;99.90
11666;DHT22;5889;51.350;6.708;2023-09-19T08:06:17;17.20;99.90
11666;DHT22;5889;51.350;6.708;2023-09-19T08:08:44;17.30;99.90
11666;DHT22;5889;51.350;6.708;2023-09-19T08:11:11;17.40;99.90
11666;DHT22;5889;51.350;6.708;2023-09-19T08:13:39;17.30;99.90
11666;DHT22;5889;51.350;6.708;2023-09-19T08:16:08;17.50;99.90
11666;DHT22;5889;51.350;6.708;2023-09-19T08:18:35;17.60;99.90
11666;DHT22;5889;51.350;6.708;2023-09-19T08:21:04;17.70;99.90
11666;DHT22;5889;51.350;6.708;2023-09-19T08:23:36;17.80;99.90
11666;DHT22;5889;51.350;6.708;2023-09-19T08:26:04;17.80;99.90
11666;DHT22;5889;51.350;6.708;2023-09-19T08:28:33;17.90;99.90
11666;DHT22;5889;51.350;6.708;2023-09-19T08:31:02;17.90;99.90
11666;DHT22;5889;51.350;6.708;2023-09-19T08:33:31;17.90;99.90
11666;DHT22;5889;51.350;6.708;2023-09-19T08:35:58;18.00;99.90
11666;DHT22;5889;51.350;6.708;2023-09-19T08:38:26;18.00;99.90
11666;DHT22;5889;51.350;6.708;2023-09-19T08:40:57;18.00;99.90
11666;DHT22;5889;51.350;6.708;2023-09-19T08:43:24;18.00;99.90
11666;DHT22;5889;51.350;6.708;2023-09-19T08:45:53;18.10;99.90
11666;DHT22;5889;51.350;6.708;2023-09-19T08:48:26;18.10;99.90
11666;DHT22;5889;51.350;6.708;2023-09-19T08:50:57;18.20;99.90
11666;DHT22;5889;51.350;6.708;2023-09-19T08:53:34;18.40;99.90
11666;DHT22;5889;51.350;6.708;2023-09-19T08:56:04;18.40;99.90
11666;DHT22;5889;51.350;6.708;2023-09-19T08:58:40;18.50;99.90
11666;DHT22;5889;51.350;6.708;2023-09-19T09:01:10;18.50;99.90
11666;DHT22;5889;51.350;6.708;2023-09-19T09:03:39;18.50;99.90
11666;DHT22;5889;51.350;6.708;2023-09-19T09:06:07;18.60;99.90
11666;DHT22;5889;51.350;6.708;2023-09-19T09:08:37;18.60;99.90
11666;DHT22;5889;51.350;6.708;2023-09-19T09:11:05;18.70;99.90
11666;DHT22;5889;51.350;6.708;2023-09-19T09:13:34;18.70;99.90
11666;DHT22;5889;51.350;6.708;2023-09-19T09:16:02;18.80;99.90
11666;DHT22;5889;51.350;6.708;2023-09-19T09:18:29;19.00;99.90
11666;DHT22;5889;51.350;6.708;2023-09-19T09:20:56;19.00;99.90
11666;DHT22;5889;51.350;6.708;2023-09-19T09:23:23;19.10;99.90
11666;DHT22;5889;51.350;6.708;2023-09-19T09:25:53;19.00;99.90
11666;DHT22;5889;51.350;6.708;2023-09-19T09:28:24;19.10;99.90
11666;DHT22;5889;51.350;6.708;2023-09-19T09:30:52;19.00;99.90
11666;DHT22;5889;51.350;6.708;2023-09-19T09:33:19;19.00;99.90
11666;DHT22;5889;51.350;6.708;2023-09-19T09:35:51;19.10;99.90
11666;DHT22;5889;51.350;6.708;2023-09-19T09:38:19;19.20;99.90
11666;DHT22;5889;51.350;6.708;2023-09-19T09:40:47;19.10;99.90
11666;DHT22;5889;51.350;6.708;2023-09-19T09:43:32;19.00;99.90
11666;DHT22;5889;51.350;6.708;2023-09-19T09:46:08;19.10;99.90
11666;DHT22;5889;51.350;6.708;2023-09-19T09:49:01;19.00;99.90
11666;DHT22;5889;51.350;6.708;2023-09-19T09:52:00;19.10;99.90
11666;DHT22;5889;51.350;6.708;2023-09-19T09:54:32;19.20;99.90
11666;DHT22;5889;51.350;6.708;2023-09-19T09:57:04;19.10;99.90
11666;DHT22;5889;51.350;6.708;2023-09-19T09:59:46;18.90;99.90
11666;DHT22;5889;51.350;6.708;2023-09-19T10:02:12;18.90;99.90
11666;DHT22;5889;51.350;6.708;2023-09-19T10:04:40;19.00;99.90
11666;DHT22;5889;51.350;6.708;2023-09-19T10:07:28;19.10;99.90
11666;DHT22;5889;51.350;6.708;2023-09-19T10:09:59;19.20;99.90
11666;DHT22;5889;51.350;6.708;2023-09-19T10:12:38;19.30;99.90
11666;DHT22;5889;51.350;6.708;2023-09-19T10:15:07;19.50;99.90
11666;DHT22;5889;51.350;6.708;2023-09-19T10:17:36;19.70;99.90
11666;DHT22;5889;51.350;6.708;2023-09-19T10:20:06;19.90;99.90
11666;DHT22;5889;51.350;6.708;2023-09-19T10:22:45;20.00;99.90
11666;DHT22;5889;51.350;6.708;2023-09-19T10:25:24;20.00;99.90
11666;DHT22;5889;51.350;6.708;2023-09-19T10:27:52;20.10;99.90
11666;DHT22;5889;51.350;6.708;2023-09-19T10:30:23;20.20;99.90
11666;DHT22;5889;51.350;6.708;2023-09-19T10:32:56;20.30;99.90
11666;DHT22;5889;51.350;6.708;2023-09-19T10:35:25;20.20;99.90
11666;DHT22;5889;51.350;6.708;2023-09-19T10:37:55;20.10;99.90
11666;DHT22;5889;51.350;6.708;2023-09-19T10:40:24;20.10;99.90
11666;DHT22;5889;51.350;6.708;2023-09-19T10:43:00;20.20;99.90
11666;DHT22;5889;51.350;6.708;2023-09-19T10:45:31;20.30;99.90
11666;DHT22;5889;51.350;6.708;2023-09-19T10:47:58;20.40;99.90
11666;DHT22;5889;51.350;6.708;2023-09-19T10:50:25;20.40;99.90
11666;DHT22;5889;51.350;6.708;2023-09-19T10:52:54;20.30;99.90
11666;DHT22;5889;51.350;6.708;2023-09-19T10:55:27;20.10;99.90
11666;DHT22;5889;51.350;6.708;2023-09-19T10:57:55;20.10;99.90
11666;DHT22;5889;51.350;6.708;2023-09-19T11:00:53;20.20;99.90
11666;DHT22;5889;51.350;6.708;2023-09-19T11:03:22;20.40;99.90
11666;DHT22;5889;51.350;6.708;2023-09-19T11:06:16;20.60;99.90
11666;DHT22;5889;51.350;6.708;2023-09-19T11:09:00;20.60;99.90
11666;DHT22;5889;51.350;6.708;2023-09-19T11:11:46;20.60;99.80
11666;DHT22;5889;51.350;6.708;2023-09-19T11:14:38;20.60;99.90
11666;DHT22;5889;51.350;6.708;2023-09-19T11:20:22;20.70;99.70
11666;DHT22;5889;51.350;6.708;2023-09-19T11:23:20;20.60;99.90
11666;DHT22;5889;51.350;6.708;2023-09-19T11:25:50;20.40;99.70
11666;DHT22;5889;51.350;6.708;2023-09-19T11:28:32;20.30;99.50
11666;DHT22;5889;51.350;6.708;2023-09-19T11:31:41;20.40;99.40
11666;DHT22;5889;51.350;6.708;2023-09-19T11:34:43;20.60;99.70
11666;DHT22;5889;51.350;6.708;2023-09-19T11:40:45;21.00;99.30
11666;DHT22;5889;51.350;6.708;2023-09-19T11:43:30;21.20;98.60
11666;DHT22;5889;51.350;6.708;2023-09-19T11:46:06;21.30;98.60
11666;DHT22;5889;51.350;6.708;2023-09-19T11:48:35;21.40;98.10
11666;DHT22;5889;51.350;6.708;2023-09-19T11:51:14;21.40;97.90
11666;DHT22;5889;51.350;6.708;2023-09-19T11:53:52;21.50;98.10
11666;DHT22;5889;51.350;6.708;2023-09-19T11:56:22;21.50;97.00
11666;DHT22;5889;51.350;6.708;2023-09-19T11:58:50;21.40;97.20
11666;DHT22;5889;51.350;6.708;2023-09-19T12:01:22;21.30;96.70
11666;DHT22;5889;51.350;6.708;2023-09-19T12:03:53;21.20;96.70
11666;DHT22;5889;51.350;6.708;2023-09-19T12:06:20;21.20;97.70
11666;DHT22;5889;51.350;6.708;2023-09-19T12:08:48;21.40;98.00
11666;DHT22;5889;51.350;6.708;2023-09-19T12:11:17;21.50;97.20
11666;DHT22;5889;51.350;6.708;2023-09-19T12:13:47;21.40;97.00
11666;DHT22;5889;51.350;6.708;2023-09-19T12:16:17;21.40;97.10
11666;DHT22;5889;51.350;6.708;2023-09-19T12:18:48;21.60;97.20
11666;DHT22;5889;51.350;6.708;2023-09-19T12:21:33;21.70;97.20
11666;DHT22;5889;51.350;6.708;2023-09-19T12:24:06;21.80;96.70
11666;DHT22;5889;51.350;6.708;2023-09-19T12:26:41;21.60;96.50
11666;DHT22;5889;51.350;6.708;2023-09-19T12:29:17;21.60;97.10
11666;DHT22;5889;51.350;6.708;2023-09-19T12:31:51;21.70;96.80
11666;DHT22;5889;51.350;6.708;2023-09-19T12:34:21;21.80;96.10
11666;DHT22;5889;51.350;6.708;2023-09-19T12:36:48;21.80;96.10
11666;DHT22;5889;51.350;6.708;2023-09-19T12:39:24;21.60;96.00
11666;DHT22;5889;51.350;6.708;2023-09-19T12:41:52;21.70;96.30
11666;DHT22;5889;51.350;6.708;2023-09-19T12:44:21;21.70;96.50
11666;DHT22;5889;51.350;6.708;2023-09-19T12:46:50;21.70;96.70
11666;DHT22;5889;51.350;6.708;2023-09-19T12:49:19;21.70;96.20
11666;DHT22;5889;51.350;6.708;2023-09-19T12:51:47;21.70;96.10
11666;DHT22;5889;51.350;6.708;2023-09-19T12:54:14;21.70;96.30
11666;DHT22;5889;51.350;6.708;2023-09-19T12:56:42;21.80;96.10
11666;DHT22;5889;51.350;6.708;2023-09-19T12:59:13;21.80;96.20
11666;DHT22;5889;51.350;6.708;2023-09-19T13:01:42;21.80;96.50
11666;DHT22;5889;51.350;6.708;2023-09-19T13:04:15;21.90;96.00
11666;DHT22;5889;51.350;6.708;2023-09-19T13:06:45;21.90;96.40
11666;DHT22;5889;51.350;6.708;2023-09-19T13:09:14;21.80;96.00
11666;DHT22;5889;51.350;6.708;2023-09-19T13:11:42;21.60;96.40
11666;DHT22;5889;51.350;6.708;2023-09-19T13:14:15;21.50;96.40
11666;DHT22;5889;51.350;6.708;2023-09-19T13:17:00;21.50;96.50
11666;DHT22;5889;51.350;6.708;2023-09-19T13:19:37;21.50;96.90
11666;DHT22;5889;51.350;6.708;2023-09-19T13:22:05;21.60;96.90
11666;DHT22;5889;51.350;6.708;2023-09-19T13:24:34;21.60;97.00
11666;DHT22;5889;51.350;6.708;2023-09-19T13:27:05;21.80;97.40
11666;DHT22;5889;51.350;6.708;2023-09-19T13:29:32;21.80;97.20
11666;DHT22;5889;51.350;6.708;2023-09-19T13:32:01;22.00;96.90
11666;DHT22;5889;51.350;6.708;2023-09-19T13:34:29;21.90;96.50
11666;DHT22;5889;51.350;6.708;2023-09-19T13:36:57;21.80;96.60
11666;DHT22;5889;51.350;6.708;2023-09-19T13:39:24;21.60;96.60
11666;DHT22;5889;51.350;6.708;2023-09-19T13:41:51;21.50;96.40
11666;DHT22;5889;51.350;6.708;2023-09-19T13:44:18;21.40;96.70
11666;DHT22;5889;51.350;6.708;2023-09-19T13:46:45;21.30;96.80
11666;DHT22;5889;51.350;6.708;2023-09-19T13:49:13;21.30;96.90
11666;DHT22;5889;51.350;6.708;2023-09-19T13:51:40;21.20;97.00
11666;DHT22;5889;51.350;6.708;2023-09-19T13:54:09;21.20;97.10
11666;DHT22;5889;51.350;6.708;2023-09-19T13:56:37;21.10;97.00
11666;DHT22;5889;51.350;6.708;2023-09-19T13:59:04;21.10;97.50
11666;DHT22;5889;51.350;6.708;2023-09-19T14:01:31;21.10;97.50
11666;DHT22;5889;51.350;6.708;2023-09-19T14:03:58;21.20;97.50
11666;DHT22;5889;51.350;6.708;2023-09-19T14:06:26;21.20;97.70
11666;DHT22;5889;51.350;6.708;2023-09-19T14:08:52;21.10;97.40
11666;DHT22;5889;51.350;6.708;2023-09-19T14:11:19;21.20;97.70
11666;DHT22;5889;51.350;6.708;2023-09-19T14:13:46;21.10;97.70
11666;DHT22;5889;51.350;6.708;2023-09-19T14:16:15;21.10;97.60
11666;DHT22;5889;51.350;6.708;2023-09-19T14:18:42;21.00;97.90
11666;DHT22;5889;51.350;6.708;2023-09-19T14:21:09;20.90;97.80
11666;DHT22;5889;51.350;6.708;2023-09-19T14:23:38;20.80;98.10
11666;DHT22;5889;51.350;6.708;2023-09-19T14:26:05;20.90;98.30
11666;DHT22;5889;51.350;6.708;2023-09-19T14:28:32;21.00;98.30
11666;DHT22;5889;51.350;6.708;2023-09-19T14:31:04;20.90;98.10
11666;DHT22;5889;51.350;6.708;2023-09-19T14:33:31;20.90;98.30
11666;DHT22;5889;51.350;6.708;2023-09-19T14:35:58;21.00;98.50
11666;DHT22;5889;51.350;6.708;2023-09-19T14:38:25;21.00;98.40
11666;DHT22;5889;51.350;6.708;2023-09-19T14:41:00;21.10;98.60
11666;DHT22;5889;51.350;6.708;2023-09-19T14:43:27;21.00;98.20
11666;DHT22;5889;51.350;6.708;2023-09-19T14:45:56;20.90;98.40
11666;DHT22;5889;51.350;6.708;2023-09-19T14:48:23;20.90;98.20
11666;DHT22;5889;51.350;6.708;2023-09-19T14:50:51;20.90;98.10
11666;DHT22;5889;51.350;6.708;2023-09-19T14:53:18;21.00;98.60
11666;DHT22;5889;51.350;6.708;2023-09-19T14:55:45;21.00;98.50
11666;DHT22;5889;51.350;6.708;2023-09-19T14:58:14;21.00;98.50
11666;DHT22;5889;51.350;6.708;2023-09-19T15:00:41;21.00;98.70
11666;DHT22;5889;51.350;6.708;2023-09-19T15:03:10;21.10;98.50
11666;DHT22;5889;51.350;6.708;2023-09-19T15:05:37;21.00;98.10
11666;DHT22;5889;51.350;6.708;2023-09-19T15:08:05;21.00;98.10
11666;DHT22;5889;51.350;6.708;2023-09-19T15:10:32;20.90;98.30
11666;DHT22;5889;51.350;6.708;2023-09-19T15:12:58;20.90;98.20
11666;DHT22;5889;51.350;6.708;2023-09-19T15:15:27;20.80;98.30
11666;DHT22;5889;51.350;6.708;2023-09-19T15:17:53;20.80;98.50
11666;DHT22;5889;51.350;6.708;2023-09-19T15:20:20;20.80;98.50
11666;DHT22;5889;51.350;6.708;2023-09-19T15:22:47;20.80;98.60
11666;DHT22;5889;51.350;6.708;2023-09-19T15:25:14;20.80;98.60
11666;DHT22;5889;51.350;6.708;2023-09-19T15:27:41;20.80;98.60
11666;DHT22;5889;51.350;6.708;2023-09-19T15:30:10;20.90;98.50
11666;DHT22;5889;51.350;6.708;2023-09-19T15:32:38;20.90;98.60
11666;DHT22;5889;51.350;6.708;2023-09-19T15:35:07;21.00;98.70
11666;DHT22;5889;51.350;6.708;2023-09-19T15:37:38;21.10;98.60
11666;DHT22;5889;51.350;6.708;2023-09-19T15:40:06;21.10;98.60
11666;DHT22;5889;51.350;6.708;2023-09-19T15:42:36;21.20;98.40
11666;DHT22;5889;51.350;6.708;2023-09-19T15:45:03;21.10;98.30
11666;DHT22;5889;51.350;6.708;2023-09-19T15:47:30;21.20;98.80
11666;DHT22;5889;51.350;6.708;2023-09-19T15:49:58;21.20;98.50
11666;DHT22;5889;51.350;6.708;2023-09-19T15:52:25;21.20;98.30
11666;DHT22;5889;51.350;6.708;2023-09-19T15:54:52;21.20;98.10
11666;DHT22;5889;51.350;6.708;2023-09-19T15:57:19;21.20;98.20
11666;DHT22;5889;51.350;6.708;2023-09-19T15:59:46;21.00;98.10
11666;DHT22;5889;51.350;6.708;2023-09-19T16:02:13;20.90;98.70
11666;DHT22;5889;51.350;6.708;2023-09-19T16:04:39;20.80;98.70
11666;DHT22;5889;51.350;6.708;2023-09-19T16:07:10;20.80;99.00
11666;DHT22;5889;51.350;6.708;2023-09-19T16:09:37;20.70;98.80